sensor_id;sensor_type;location;lat;lon;timestamp;P1;durP1;ratioP1;P2;durP2;ratioP2
50517;SDS011;37075;44.084;2.962;2023-12-07T00:02:28;4.25;;;2.42;;
50517;SDS011;37075;44.084;2.962;2023-12-07T00:05:14;28.02;;;5.25;;
50517;SDS011;37075;44.084;2.962;2023-12-07T00:08:00;7.10;;;3.35;;
50517;SDS011;37075;44.084;2.962;2023-12-07T00:10:48;2.85;;;2.03;;
50517;SDS011;37075;44.084;2.962;2023-12-07T00:13:35;7.90;;;2.28;;
50517;SDS011;37075;44.084;2.962;2023-12-07T00:16:20;8.73;;;3.70;;
50517;SDS011;37075;44.084;2.962;2023-12-07T00:19:06;6.03;;;2.95;;
50517;SDS011;37075;44.084;2.962;2023-12-07T00:21:52;20.15;;;3.97;;
50517;SDS011;37075;44.084;2.962;2023-12-07T00:24:39;8.32;;;3.80;;
50517;SDS011;37075;44.084;2.962;2023-12-07T00:27:26;6.70;;;3.35;;
50517;SDS011;37075;44.084;2.962;2023-12-07T00:30:12;11.15;;;3.35;;
50517;SDS011;37075;44.084;2.962;2023-12-07T00:32:59;21.48;;;6.88;;
50517;SDS011;37075;44.084;2.962;2023-12-07T00:35:44;14.35;;;3.90;;
50517;SDS011;37075;44.084;2.962;2023-12-07T00:38:30;20.42;;;4.95;;
50517;SDS011;37075;44.084;2.962;2023-12-07T00:41:16;16.30;;;4.30;;
50517;SDS011;37075;44.084;2.962;2023-12-07T00:44:04;8.95;;;2.95;;
50517;SDS011;37075;44.084;2.962;2023-12-07T00:46:50;9.48;;;4.25;;
50517;SDS011;37075;44.084;2.962;2023-12-07T00:49:37;10.85;;;2.95;;
50517;SDS011;37075;44.084;2.962;2023-12-07T00:52:25;12.07;;;2.83;;
50517;SDS011;37075;44.084;2.962;2023-12-07T00:55:11;6.40;;;3.88;;
50517;SDS011;37075;44.084;2.962;2023-12-07T00:57:57;4.35;;;2.03;;
50517;SDS011;37075;44.084;2.962;2023-12-07T01:00:45;3.40;;;1.88;;
50517;SDS011;37075;44.084;2.962;2023-12-07T01:03:32;5.00;;;2.38;;
50517;SDS011;37075;44.084;2.962;2023-12-07T01:06:18;11.35;;;3.80;;
50517;SDS011;37075;44.084;2.962;2023-12-07T01:09:04;9.88;;;4.53;;
50517;SDS011;37075;44.084;2.962;2023-12-07T01:11:50;7.53;;;3.00;;
50517;SDS011;37075;44.084;2.962;2023-12-07T01:14:36;10.95;;;2.70;;
50517;SDS011;37075;44.084;2.962;2023-12-07T01:17:23;7.75;;;2.88;;
50517;SDS011;37075;44.084;2.962;2023-12-07T01:20:10;7.88;;;3.40;;
50517;SDS011;37075;44.084;2.962;2023-12-07T01:22:57;5.18;;;2.75;;
50517;SDS011;37075;44.084;2.962;2023-12-07T01:25:43;7.03;;;2.25;;
50517;SDS011;37075;44.084;2.962;2023-12-07T01:28:29;7.88;;;3.25;;
50517;SDS011;37075;44.084;2.962;2023-12-07T01:31:15;6.13;;;2.60;;
50517;SDS011;37075;44.084;2.962;2023-12-07T01:34:03;6.85;;;3.35;;
50517;SDS011;37075;44.084;2.962;2023-12-07T01:36:49;2.50;;;2.17;;
50517;SDS011;37075;44.084;2.962;2023-12-07T01:39:34;6.78;;;2.08;;
50517;SDS011;37075;44.084;2.962;2023-12-07T01:42:20;5.15;;;2.58;;
50517;SDS011;37075;44.084;2.962;2023-12-07T01:45:06;4.78;;;1.92;;
50517;SDS011;37075;44.084;2.962;2023-12-07T01:47:52;11.13;;;3.33;;
50517;SDS011;37075;44.084;2.962;2023-12-07T01:50:42;6.28;;;1.90;;
50517;SDS011;37075;44.084;2.962;2023-12-07T01:53:28;19.13;;;7.30;;
50517;SDS011;37075;44.084;2.962;2023-12-07T01:56:15;14.63;;;5.35;;
50517;SDS011;37075;44.084;2.962;2023-12-07T01:59:01;22.02;;;3.15;;
50517;SDS011;37075;44.084;2.962;2023-12-07T02:01:48;19.77;;;5.88;;
50517;SDS011;37075;44.084;2.962;2023-12-07T02:04:35;23.10;;;5.50;;
50517;SDS011;37075;44.084;2.962;2023-12-07T02:07:22;17.83;;;4.15;;
50517;SDS011;37075;44.084;2.962;2023-12-07T02:10:09;5.63;;;3.17;;
50517;SDS011;37075;44.084;2.962;2023-12-07T02:12:55;8.50;;;3.45;;
50517;SDS011;37075;44.084;2.962;2023-12-07T02:15:41;5.38;;;2.20;;
50517;SDS011;37075;44.084;2.962;2023-12-07T02:18:28;8.32;;;3.25;;
50517;SDS011;37075;44.084;2.962;2023-12-07T02:21:25;6.00;;;2.13;;
50517;SDS011;37075;44.084;2.962;2023-12-07T02:24:20;5.63;;;2.67;;
50517;SDS011;37075;44.084;2.962;2023-12-07T02:27:08;8.48;;;2.72;;
50517;SDS011;37075;44.084;2.962;2023-12-07T02:29:55;6.97;;;3.05;;
50517;SDS011;37075;44.084;2.962;2023-12-07T02:32:41;5.82;;;3.05;;
50517;SDS011;37075;44.084;2.962;2023-12-07T02:35:29;3.70;;;2.30;;
50517;SDS011;37075;44.084;2.962;2023-12-07T02:38:17;2.75;;;2.17;;
50517;SDS011;37075;44.084;2.962;2023-12-07T02:41:04;7.15;;;3.28;;
50517;SDS011;37075;44.084;2.962;2023-12-07T02:43:53;4.57;;;2.67;;
50517;SDS011;37075;44.084;2.962;2023-12-07T02:46:39;7.57;;;2.05;;
50517;SDS011;37075;44.084;2.962;2023-12-07T02:49:26;5.47;;;2.53;;
50517;SDS011;37075;44.084;2.962;2023-12-07T02:52:11;4.10;;;1.80;;
50517;SDS011;37075;44.084;2.962;2023-12-07T02:54:57;10.85;;;2.17;;
50517;SDS011;37075;44.084;2.962;2023-12-07T02:57:43;12.23;;;3.45;;
50517;SDS011;37075;44.084;2.962;2023-12-07T03:00:30;15.52;;;3.03;;
50517;SDS011;37075;44.084;2.962;2023-12-07T03:03:16;12.70;;;3.33;;
50517;SDS011;37075;44.084;2.962;2023-12-07T03:06:02;14.27;;;3.33;;
50517;SDS011;37075;44.084;2.962;2023-12-07T03:08:48;9.35;;;2.72;;
50517;SDS011;37075;44.084;2.962;2023-12-07T03:11:34;20.88;;;2.90;;
50517;SDS011;37075;44.084;2.962;2023-12-07T03:14:20;8.27;;;1.58;;
50517;SDS011;37075;44.084;2.962;2023-12-07T03:17:08;7.13;;;2.72;;
50517;SDS011;37075;44.084;2.962;2023-12-07T03:19:54;14.07;;;3.05;;
50517;SDS011;37075;44.084;2.962;2023-12-07T03:22:40;5.57;;;1.35;;
50517;SDS011;37075;44.084;2.962;2023-12-07T03:25:26;5.18;;;2.65;;
50517;SDS011;37075;44.084;2.962;2023-12-07T03:28:12;2.00;;;1.27;;
50517;SDS011;37075;44.084;2.962;2023-12-07T03:30:58;3.63;;;2.00;;
50517;SDS011;37075;44.084;2.962;2023-12-07T03:33:45;3.10;;;2.28;;
50517;SDS011;37075;44.084;2.962;2023-12-07T03:36:31;2.93;;;1.77;;
50517;SDS011;37075;44.084;2.962;2023-12-07T03:39:17;3.55;;;1.92;;
50517;SDS011;37075;44.084;2.962;2023-12-07T03:42:06;3.90;;;1.50;;
50517;SDS011;37075;44.084;2.962;2023-12-07T03:44:52;8.98;;;2.35;;
50517;SDS011;37075;44.084;2.962;2023-12-07T03:47:38;4.55;;;2.38;;
50517;SDS011;37075;44.084;2.962;2023-12-07T03:50:25;6.90;;;2.63;;
50517;SDS011;37075;44.084;2.962;2023-12-07T03:53:11;3.00;;;1.65;;
50517;SDS011;37075;44.084;2.962;2023-12-07T03:55:57;3.17;;;1.40;;
50517;SDS011;37075;44.084;2.962;2023-12-07T03:58:43;3.65;;;2.13;;
50517;SDS011;37075;44.084;2.962;2023-12-07T04:01:30;5.95;;;2.53;;
50517;SDS011;37075;44.084;2.962;2023-12-07T04:04:16;2.40;;;1.65;;
50517;SDS011;37075;44.084;2.962;2023-12-07T04:07:03;4.78;;;1.80;;
50517;SDS011;37075;44.084;2.962;2023-12-07T04:09:49;1.80;;;1.00;;
50517;SDS011;37075;44.084;2.962;2023-12-07T04:12:35;2.55;;;2.22;;
50517;SDS011;37075;44.084;2.962;2023-12-07T04:15:22;2.80;;;1.48;;
50517;SDS011;37075;44.084;2.962;2023-12-07T04:18:07;3.00;;;1.48;;
50517;SDS011;37075;44.084;2.962;2023-12-07T04:20:54;2.15;;;1.60;;
50517;SDS011;37075;44.084;2.962;2023-12-07T04:23:41;2.80;;;1.55;;
50517;SDS011;37075;44.084;2.962;2023-12-07T04:26:26;2.42;;;1.45;;
50517;SDS011;37075;44.084;2.962;2023-12-07T04:29:13;3.72;;;1.58;;
50517;SDS011;37075;44.084;2.962;2023-12-07T04:31:58;2.92;;;1.33;;
50517;SDS011;37075;44.084;2.962;2023-12-07T04:34:45;2.75;;;1.27;;
50517;SDS011;37075;44.084;2.962;2023-12-07T04:37:31;2.20;;;1.80;;
50517;SDS011;37075;44.084;2.962;2023-12-07T04:40:18;2.65;;;1.40;;
50517;SDS011;37075;44.084;2.962;2023-12-07T04:43:04;2.35;;;1.58;;
50517;SDS011;37075;44.084;2.962;2023-12-07T04:45:50;3.65;;;1.67;;
50517;SDS011;37075;44.084;2.962;2023-12-07T04:48:36;1.42;;;1.05;;
50517;SDS011;37075;44.084;2.962;2023-12-07T04:51:22;2.63;;;1.85;;
50517;SDS011;37075;44.084;2.962;2023-12-07T04:54:08;4.15;;;1.33;;
50517;SDS011;37075;44.084;2.962;2023-12-07T04:56:56;2.55;;;1.80;;
50517;SDS011;37075;44.084;2.962;2023-12-07T04:59:42;2.50;;;1.48;;
50517;SDS011;37075;44.084;2.962;2023-12-07T05:02:31;5.15;;;2.13;;
50517;SDS011;37075;44.084;2.962;2023-12-07T05:05:17;1.98;;;1.50;;
50517;SDS011;37075;44.084;2.962;2023-12-07T05:08:03;2.08;;;1.15;;
50517;SDS011;37075;44.084;2.962;2023-12-07T05:10:49;3.17;;;1.13;;
50517;SDS011;37075;44.084;2.962;2023-12-07T05:13:37;6.82;;;2.03;;
50517;SDS011;37075;44.084;2.962;2023-12-07T05:16:23;3.65;;;1.48;;
50517;SDS011;37075;44.084;2.962;2023-12-07T05:19:09;1.73;;;1.20;;
50517;SDS011;37075;44.084;2.962;2023-12-07T05:21:55;1.92;;;1.48;;
50517;SDS011;37075;44.084;2.962;2023-12-07T05:24:41;2.10;;;1.50;;
50517;SDS011;37075;44.084;2.962;2023-12-07T05:27:27;11.63;;;1.80;;
50517;SDS011;37075;44.084;2.962;2023-12-07T05:30:15;3.25;;;1.13;;
50517;SDS011;37075;44.084;2.962;2023-12-07T05:33:01;2.30;;;1.73;;
50517;SDS011;37075;44.084;2.962;2023-12-07T05:35:48;7.10;;;1.08;;
50517;SDS011;37075;44.084;2.962;2023-12-07T05:38:34;4.95;;;1.65;;
50517;SDS011;37075;44.084;2.962;2023-12-07T05:41:20;1.48;;;1.02;;
50517;SDS011;37075;44.084;2.962;2023-12-07T05:44:07;1.48;;;1.08;;
50517;SDS011;37075;44.084;2.962;2023-12-07T05:46:54;1.77;;;1.15;;
50517;SDS011;37075;44.084;2.962;2023-12-07T05:49:42;2.33;;;1.15;;
50517;SDS011;37075;44.084;2.962;2023-12-07T05:52:28;2.90;;;1.33;;
50517;SDS011;37075;44.084;2.962;2023-12-07T05:55:14;2.22;;;0.80;;
50517;SDS011;37075;44.084;2.962;2023-12-07T05:58:00;2.83;;;1.48;;
50517;SDS011;37075;44.084;2.962;2023-12-07T06:00:48;1.20;;;0.80;;
50517;SDS011;37075;44.084;2.962;2023-12-07T06:03:35;2.95;;;1.67;;
50517;SDS011;37075;44.084;2.962;2023-12-07T06:06:21;1.83;;;1.30;;
50517;SDS011;37075;44.084;2.962;2023-12-07T06:09:07;3.50;;;0.95;;
50517;SDS011;37075;44.084;2.962;2023-12-07T06:11:53;1.65;;;1.15;;
50517;SDS011;37075;44.084;2.962;2023-12-07T06:14:39;1.42;;;0.80;;
50517;SDS011;37075;44.084;2.962;2023-12-07T06:17:24;1.83;;;1.20;;
50517;SDS011;37075;44.084;2.962;2023-12-07T06:20:12;2.75;;;1.40;;
50517;SDS011;37075;44.084;2.962;2023-12-07T06:22:58;1.10;;;0.88;;
50517;SDS011;37075;44.084;2.962;2023-12-07T06:25:43;3.65;;;1.25;;
50517;SDS011;37075;44.084;2.962;2023-12-07T06:28:29;1.45;;;0.73;;
50517;SDS011;37075;44.084;2.962;2023-12-07T06:31:16;4.72;;;1.70;;
50517;SDS011;37075;44.084;2.962;2023-12-07T06:34:05;1.23;;;0.80;;
50517;SDS011;37075;44.084;2.962;2023-12-07T06:36:52;3.13;;;1.30;;
50517;SDS011;37075;44.084;2.962;2023-12-07T06:39:38;2.60;;;1.00;;
50517;SDS011;37075;44.084;2.962;2023-12-07T06:42:24;2.22;;;1.33;;
50517;SDS011;37075;44.084;2.962;2023-12-07T06:45:10;2.15;;;0.70;;
50517;SDS011;37075;44.084;2.962;2023-12-07T06:47:58;0.70;;;0.50;;
50517;SDS011;37075;44.084;2.962;2023-12-07T06:50:46;0.50;;;0.50;;
50517;SDS011;37075;44.084;2.962;2023-12-07T06:53:33;1.77;;;1.17;;
50517;SDS011;37075;44.084;2.962;2023-12-07T06:56:19;2.78;;;0.80;;
50517;SDS011;37075;44.084;2.962;2023-12-07T06:59:05;1.42;;;0.68;;
50517;SDS011;37075;44.084;2.962;2023-12-07T07:01:51;0.80;;;0.50;;
50517;SDS011;37075;44.084;2.962;2023-12-07T07:04:37;4.65;;;2.05;;
50517;SDS011;37075;44.084;2.962;2023-12-07T07:07:23;3.20;;;1.00;;
50517;SDS011;37075;44.084;2.962;2023-12-07T07:10:10;2.08;;;0.85;;
50517;SDS011;37075;44.084;2.962;2023-12-07T07:12:59;1.77;;;0.93;;
50517;SDS011;37075;44.084;2.962;2023-12-07T07:15:45;2.30;;;1.70;;
50517;SDS011;37075;44.084;2.962;2023-12-07T07:18:33;1.13;;;0.77;;
50517;SDS011;37075;44.084;2.962;2023-12-07T07:21:19;0.90;;;0.57;;
50517;SDS011;37075;44.084;2.962;2023-12-07T07:24:05;3.00;;;2.47;;
50517;SDS011;37075;44.084;2.962;2023-12-07T07:26:53;6.30;;;2.15;;
50517;SDS011;37075;44.084;2.962;2023-12-07T07:29:39;1.10;;;1.00;;
50517;SDS011;37075;44.084;2.962;2023-12-07T07:32:25;0.85;;;0.40;;
50517;SDS011;37075;44.084;2.962;2023-12-07T07:35:11;4.05;;;1.08;;
50517;SDS011;37075;44.084;2.962;2023-12-07T07:37:58;0.87;;;0.87;;
50517;SDS011;37075;44.084;2.962;2023-12-07T07:40:44;1.08;;;1.00;;
50517;SDS011;37075;44.084;2.962;2023-12-07T07:43:33;0.65;;;0.65;;
50517;SDS011;37075;44.084;2.962;2023-12-07T07:46:19;1.13;;;0.70;;
50517;SDS011;37075;44.084;2.962;2023-12-07T07:49:05;1.70;;;0.95;;
50517;SDS011;37075;44.084;2.962;2023-12-07T07:51:51;3.47;;;1.63;;
50517;SDS011;37075;44.084;2.962;2023-12-07T07:54:37;3.83;;;2.67;;
50517;SDS011;37075;44.084;2.962;2023-12-07T07:57:22;5.25;;;3.40;;
50517;SDS011;37075;44.084;2.962;2023-12-07T08:00:11;3.35;;;1.67;;
50517;SDS011;37075;44.084;2.962;2023-12-07T08:02:58;4.88;;;2.40;;
50517;SDS011;37075;44.084;2.962;2023-12-07T08:05:44;3.53;;;1.92;;
50517;SDS011;37075;44.084;2.962;2023-12-07T08:08:30;1.90;;;1.00;;
50517;SDS011;37075;44.084;2.962;2023-12-07T08:11:17;0.95;;;0.77;;
50517;SDS011;37075;44.084;2.962;2023-12-07T08:14:03;1.10;;;0.90;;
50517;SDS011;37075;44.084;2.962;2023-12-07T08:16:50;1.73;;;1.27;;
50517;SDS011;37075;44.084;2.962;2023-12-07T08:19:36;2.88;;;1.27;;
50517;SDS011;37075;44.084;2.962;2023-12-07T08:22:23;1.63;;;1.52;;
50517;SDS011;37075;44.084;2.962;2023-12-07T08:25:09;3.38;;;1.92;;
50517;SDS011;37075;44.084;2.962;2023-12-07T08:27:56;3.10;;;2.20;;
50517;SDS011;37075;44.084;2.962;2023-12-07T08:30:42;3.33;;;1.55;;
50517;SDS011;37075;44.084;2.962;2023-12-07T08:33:30;1.90;;;1.30;;
50517;SDS011;37075;44.084;2.962;2023-12-07T08:36:16;3.90;;;1.25;;
50517;SDS011;37075;44.084;2.962;2023-12-07T08:39:02;2.60;;;1.10;;
50517;SDS011;37075;44.084;2.962;2023-12-07T08:41:48;1.60;;;1.13;;
50517;SDS011;37075;44.084;2.962;2023-12-07T08:44:34;0.70;;;0.70;;
50517;SDS011;37075;44.084;2.962;2023-12-07T08:47:20;2.20;;;1.38;;
50517;SDS011;37075;44.084;2.962;2023-12-07T08:50:08;2.42;;;1.42;;
50517;SDS011;37075;44.084;2.962;2023-12-07T08:52:54;1.33;;;1.15;;
50517;SDS011;37075;44.084;2.962;2023-12-07T08:55:40;1.77;;;1.15;;
50517;SDS011;37075;44.084;2.962;2023-12-07T08:58:26;4.30;;;1.23;;
50517;SDS011;37075;44.084;2.962;2023-12-07T09:01:12;1.67;;;0.95;;
50517;SDS011;37075;44.084;2.962;2023-12-07T09:03:58;0.80;;;0.63;;
50517;SDS011;37075;44.084;2.962;2023-12-07T09:06:46;2.72;;;0.68;;
50517;SDS011;37075;44.084;2.962;2023-12-07T09:09:31;3.47;;;1.23;;
50517;SDS011;37075;44.084;2.962;2023-12-07T09:12:18;0.50;;;0.45;;
50517;SDS011;37075;44.084;2.962;2023-12-07T09:15:04;3.92;;;1.50;;
50517;SDS011;37075;44.084;2.962;2023-12-07T09:20:39;1.30;;;0.98;;
50517;SDS011;37075;44.084;2.962;2023-12-07T09:23:31;0.68;;;0.40;;
50517;SDS011;37075;44.084;2.962;2023-12-07T09:26:17;1.30;;;1.15;;
50517;SDS011;37075;44.084;2.962;2023-12-07T09:29:03;4.60;;;1.25;;
50517;SDS011;37075;44.084;2.962;2023-12-07T09:31:50;2.65;;;1.23;;
50517;SDS011;37075;44.084;2.962;2023-12-07T09:34:36;2.50;;;1.42;;
50517;SDS011;37075;44.084;2.962;2023-12-07T09:37:25;5.38;;;1.52;;
50517;SDS011;37075;44.084;2.962;2023-12-07T09:40:15;9.30;;;3.45;;
50517;SDS011;37075;44.084;2.962;2023-12-07T09:43:02;1.88;;;1.25;;
50517;SDS011;37075;44.084;2.962;2023-12-07T09:45:48;0.85;;;0.70;;
50517;SDS011;37075;44.084;2.962;2023-12-07T09:48:39;1.30;;;0.73;;
50517;SDS011;37075;44.084;2.962;2023-12-07T09:51:28;1.27;;;0.73;;
50517;SDS011;37075;44.084;2.962;2023-12-07T09:54:17;2.20;;;1.10;;
50517;SDS011;37075;44.084;2.962;2023-12-07T09:57:07;1.67;;;0.95;;
50517;SDS011;37075;44.084;2.962;2023-12-07T09:59:53;0.90;;;0.60;;
50517;SDS011;37075;44.084;2.962;2023-12-07T10:02:40;1.45;;;0.80;;
50517;SDS011;37075;44.084;2.962;2023-12-07T10:05:28;2.72;;;1.40;;
50517;SDS011;37075;44.084;2.962;2023-12-07T10:08:14;2.55;;;0.95;;
50517;SDS011;37075;44.084;2.962;2023-12-07T10:11:11;6.53;;;1.35;;
50517;SDS011;37075;44.084;2.962;2023-12-07T10:13:59;2.78;;;1.23;;
50517;SDS011;37075;44.084;2.962;2023-12-07T10:16:52;3.10;;;1.53;;
50517;SDS011;37075;44.084;2.962;2023-12-07T10:19:40;5.15;;;1.15;;
50517;SDS011;37075;44.084;2.962;2023-12-07T10:22:25;2.15;;;1.65;;
50517;SDS011;37075;44.084;2.962;2023-12-07T10:25:11;2.65;;;1.80;;
50517;SDS011;37075;44.084;2.962;2023-12-07T10:27:58;2.47;;;1.80;;
50517;SDS011;37075;44.084;2.962;2023-12-07T10:30:45;1.27;;;0.95;;
50517;SDS011;37075;44.084;2.962;2023-12-07T10:33:31;4.35;;;1.75;;
50517;SDS011;37075;44.084;2.962;2023-12-07T10:36:18;6.38;;;3.08;;
50517;SDS011;37075;44.084;2.962;2023-12-07T10:39:05;2.65;;;2.22;;
50517;SDS011;37075;44.084;2.962;2023-12-07T10:41:52;4.83;;;1.77;;
50517;SDS011;37075;44.084;2.962;2023-12-07T10:44:45;4.47;;;1.60;;
50517;SDS011;37075;44.084;2.962;2023-12-07T10:47:36;3.42;;;2.08;;
50517;SDS011;37075;44.084;2.962;2023-12-07T10:50:23;2.78;;;1.35;;
50517;SDS011;37075;44.084;2.962;2023-12-07T10:53:12;3.45;;;1.85;;
50517;SDS011;37075;44.084;2.962;2023-12-07T10:56:05;3.90;;;1.83;;
50517;SDS011;37075;44.084;2.962;2023-12-07T10:58:56;6.55;;;2.45;;
50517;SDS011;37075;44.084;2.962;2023-12-07T11:01:43;2.93;;;1.93;;
50517;SDS011;37075;44.084;2.962;2023-12-07T11:04:32;5.22;;;1.85;;
50517;SDS011;37075;44.084;2.962;2023-12-07T11:07:19;6.57;;;2.90;;
50517;SDS011;37075;44.084;2.962;2023-12-07T11:10:15;4.93;;;3.10;;
50517;SDS011;37075;44.084;2.962;2023-12-07T11:13:08;6.00;;;3.15;;
50517;SDS011;37075;44.084;2.962;2023-12-07T11:16:00;4.10;;;1.88;;
50517;SDS011;37075;44.084;2.962;2023-12-07T11:18:46;3.85;;;2.83;;
50517;SDS011;37075;44.084;2.962;2023-12-07T11:21:33;6.72;;;3.47;;
50517;SDS011;37075;44.084;2.962;2023-12-07T11:24:20;5.57;;;2.80;;
50517;SDS011;37075;44.084;2.962;2023-12-07T11:27:08;5.63;;;3.22;;
50517;SDS011;37075;44.084;2.962;2023-12-07T11:29:57;5.82;;;3.58;;
50517;SDS011;37075;44.084;2.962;2023-12-07T11:32:44;3.35;;;1.92;;
50517;SDS011;37075;44.084;2.962;2023-12-07T11:35:31;3.60;;;1.83;;
50517;SDS011;37075;44.084;2.962;2023-12-07T11:38:19;6.38;;;3.05;;
50517;SDS011;37075;44.084;2.962;2023-12-07T11:41:06;5.22;;;1.90;;
50517;SDS011;37075;44.084;2.962;2023-12-07T11:43:52;11.38;;;2.15;;
50517;SDS011;37075;44.084;2.962;2023-12-07T11:46:41;4.63;;;2.00;;
50517;SDS011;37075;44.084;2.962;2023-12-07T11:49:28;4.32;;;1.65;;
50517;SDS011;37075;44.084;2.962;2023-12-07T11:52:16;5.45;;;1.73;;
50517;SDS011;37075;44.084;2.962;2023-12-07T11:55:05;1.95;;;1.58;;
50517;SDS011;37075;44.084;2.962;2023-12-07T11:57:51;3.92;;;2.60;;
50517;SDS011;37075;44.084;2.962;2023-12-07T12:00:37;3.28;;;1.77;;
50517;SDS011;37075;44.084;2.962;2023-12-07T12:03:23;3.38;;;1.70;;
50517;SDS011;37075;44.084;2.962;2023-12-07T12:06:10;3.83;;;1.58;;
50517;SDS011;37075;44.084;2.962;2023-12-07T12:08:56;2.97;;;1.27;;
50517;SDS011;37075;44.084;2.962;2023-12-07T12:11:45;1.45;;;1.08;;
50517;SDS011;37075;44.084;2.962;2023-12-07T12:14:32;1.90;;;1.52;;
50517;SDS011;37075;44.084;2.962;2023-12-07T12:17:18;3.88;;;1.98;;
50517;SDS011;37075;44.084;2.962;2023-12-07T12:20:05;3.50;;;1.00;;
50517;SDS011;37075;44.084;2.962;2023-12-07T12:22:52;2.17;;;1.40;;
50517;SDS011;37075;44.084;2.962;2023-12-07T12:25:39;0.90;;;0.70;;
50517;SDS011;37075;44.084;2.962;2023-12-07T12:28:27;2.55;;;1.05;;
50517;SDS011;37075;44.084;2.962;2023-12-07T12:31:14;1.13;;;0.80;;
50517;SDS011;37075;44.084;2.962;2023-12-07T12:34:00;2.33;;;1.20;;
50517;SDS011;37075;44.084;2.962;2023-12-07T12:36:46;4.13;;;1.67;;
50517;SDS011;37075;44.084;2.962;2023-12-07T12:39:33;1.52;;;0.57;;
50517;SDS011;37075;44.084;2.962;2023-12-07T12:42:19;1.48;;;0.65;;
50517;SDS011;37075;44.084;2.962;2023-12-07T12:45:07;2.22;;;1.30;;
50517;SDS011;37075;44.084;2.962;2023-12-07T12:47:55;2.72;;;1.17;;
50517;SDS011;37075;44.084;2.962;2023-12-07T12:50:41;3.10;;;1.50;;
50517;SDS011;37075;44.084;2.962;2023-12-07T12:53:27;1.90;;;0.65;;
50517;SDS011;37075;44.084;2.962;2023-12-07T12:56:13;1.08;;;0.80;;
50517;SDS011;37075;44.084;2.962;2023-12-07T12:59:00;2.38;;;1.42;;
50517;SDS011;37075;44.084;2.962;2023-12-07T13:01:47;2.60;;;1.73;;
50517;SDS011;37075;44.084;2.962;2023-12-07T13:04:33;4.43;;;1.52;;
50517;SDS011;37075;44.084;2.962;2023-12-07T13:07:19;3.28;;;1.05;;
50517;SDS011;37075;44.084;2.962;2023-12-07T13:10:06;1.77;;;0.70;;
50517;SDS011;37075;44.084;2.962;2023-12-07T13:12:53;5.50;;;1.38;;
50517;SDS011;37075;44.084;2.962;2023-12-07T13:15:40;1.75;;;1.00;;
50517;SDS011;37075;44.084;2.962;2023-12-07T13:18:28;5.32;;;1.08;;
50517;SDS011;37075;44.084;2.962;2023-12-07T13:21:13;2.80;;;1.50;;
50517;SDS011;37075;44.084;2.962;2023-12-07T13:24:00;3.35;;;1.13;;
50517;SDS011;37075;44.084;2.962;2023-12-07T13:26:49;3.33;;;1.38;;
50517;SDS011;37075;44.084;2.962;2023-12-07T13:29:35;1.27;;;0.70;;
50517;SDS011;37075;44.084;2.962;2023-12-07T13:32:21;2.10;;;0.85;;
50517;SDS011;37075;44.084;2.962;2023-12-07T13:35:09;4.85;;;1.20;;
50517;SDS011;37075;44.084;2.962;2023-12-07T13:37:55;1.33;;;0.90;;
50517;SDS011;37075;44.084;2.962;2023-12-07T13:40:42;3.85;;;1.35;;
50517;SDS011;37075;44.084;2.962;2023-12-07T13:43:28;0.80;;;0.80;;
50517;SDS011;37075;44.084;2.962;2023-12-07T13:46:15;2.30;;;1.20;;
50517;SDS011;37075;44.084;2.962;2023-12-07T13:49:01;1.20;;;0.52;;
50517;SDS011;37075;44.084;2.962;2023-12-07T13:51:49;1.38;;;0.80;;
50517;SDS011;37075;44.084;2.962;2023-12-07T13:54:35;1.42;;;0.75;;
50517;SDS011;37075;44.084;2.962;2023-12-07T13:57:22;3.75;;;1.25;;
50517;SDS011;37075;44.084;2.962;2023-12-07T14:00:10;5.00;;;0.80;;
50517;SDS011;37075;44.084;2.962;2023-12-07T14:02:58;3.30;;;0.90;;
50517;SDS011;37075;44.084;2.962;2023-12-07T14:05:43;3.20;;;0.88;;
50517;SDS011;37075;44.084;2.962;2023-12-07T14:08:32;1.80;;;0.77;;
50517;SDS011;37075;44.084;2.962;2023-12-07T14:11:18;1.00;;;0.57;;
50517;SDS011;37075;44.084;2.962;2023-12-07T14:14:04;7.30;;;1.35;;
50517;SDS011;37075;44.084;2.962;2023-12-07T14:16:49;2.50;;;0.77;;
50517;SDS011;37075;44.084;2.962;2023-12-07T14:19:35;2.22;;;1.65;;
50517;SDS011;37075;44.084;2.962;2023-12-07T14:22:23;5.13;;;1.77;;
50517;SDS011;37075;44.084;2.962;2023-12-07T14:25:10;1.58;;;0.85;;
50517;SDS011;37075;44.084;2.962;2023-12-07T14:30:42;1.02;;;0.95;;
50517;SDS011;37075;44.084;2.962;2023-12-07T14:33:28;1.90;;;0.60;;
50517;SDS011;37075;44.084;2.962;2023-12-07T14:36:14;3.08;;;0.65;;
50517;SDS011;37075;44.084;2.962;2023-12-07T14:39:00;4.07;;;0.95;;
50517;SDS011;37075;44.084;2.962;2023-12-07T14:41:51;1.85;;;0.80;;
50517;SDS011;37075;44.084;2.962;2023-12-07T14:44:37;0.85;;;0.55;;
50517;SDS011;37075;44.084;2.962;2023-12-07T14:47:23;2.40;;;1.35;;
50517;SDS011;37075;44.084;2.962;2023-12-07T14:50:09;2.45;;;0.70;;
50517;SDS011;37075;44.084;2.962;2023-12-07T14:52:55;1.98;;;0.85;;
50517;SDS011;37075;44.084;2.962;2023-12-07T14:55:41;5.45;;;1.00;;
50517;SDS011;37075;44.084;2.962;2023-12-07T14:58:28;1.90;;;1.02;;
50517;SDS011;37075;44.084;2.962;2023-12-07T15:01:14;1.92;;;0.75;;
50517;SDS011;37075;44.084;2.962;2023-12-07T15:04:01;1.15;;;0.30;;
50517;SDS011;37075;44.084;2.962;2023-12-07T15:06:47;0.50;;;0.30;;
50517;SDS011;37075;44.084;2.962;2023-12-07T15:09:34;1.42;;;0.80;;
50517;SDS011;37075;44.084;2.962;2023-12-07T15:12:22;0.68;;;0.52;;
50517;SDS011;37075;44.084;2.962;2023-12-07T15:15:11;1.70;;;0.38;;
50517;SDS011;37075;44.084;2.962;2023-12-07T15:17:57;1.25;;;0.70;;
50517;SDS011;37075;44.084;2.962;2023-12-07T15:20:43;0.52;;;0.40;;
50517;SDS011;37075;44.084;2.962;2023-12-07T15:23:29;1.30;;;0.50;;
50517;SDS011;37075;44.084;2.962;2023-12-07T15:26:15;1.38;;;0.60;;
50517;SDS011;37075;44.084;2.962;2023-12-07T15:29:01;3.03;;;0.35;;
50517;SDS011;37075;44.084;2.962;2023-12-07T15:31:49;0.98;;;0.75;;
50517;SDS011;37075;44.084;2.962;2023-12-07T15:34:35;1.27;;;0.40;;
50517;SDS011;37075;44.084;2.962;2023-12-07T15:37:21;1.67;;;0.52;;
50517;SDS011;37075;44.084;2.962;2023-12-07T15:40:08;1.73;;;0.70;;
50517;SDS011;37075;44.084;2.962;2023-12-07T15:42:55;3.50;;;0.57;;
50517;SDS011;37075;44.084;2.962;2023-12-07T15:45:41;1.75;;;0.45;;
50517;SDS011;37075;44.084;2.962;2023-12-07T15:48:28;0.60;;;0.50;;
50517;SDS011;37075;44.084;2.962;2023-12-07T15:51:14;0.70;;;0.60;;
50517;SDS011;37075;44.084;2.962;2023-12-07T15:54:00;0.73;;;0.30;;
50517;SDS011;37075;44.084;2.962;2023-12-07T15:56:47;1.25;;;0.22;;
50517;SDS011;37075;44.084;2.962;2023-12-07T15:59:33;5.07;;;1.20;;
50517;SDS011;37075;44.084;2.962;2023-12-07T16:02:18;1.45;;;0.70;;
50517;SDS011;37075;44.084;2.962;2023-12-07T16:05:06;1.23;;;0.60;;
50517;SDS011;37075;44.084;2.962;2023-12-07T16:10:38;1.17;;;0.52;;
50517;SDS011;37075;44.084;2.962;2023-12-07T16:13:24;0.75;;;0.57;;
50517;SDS011;37075;44.084;2.962;2023-12-07T16:16:11;0.40;;;0.40;;
50517;SDS011;37075;44.084;2.962;2023-12-07T16:18:57;0.60;;;0.60;;
50517;SDS011;37075;44.084;2.962;2023-12-07T16:21:45;0.80;;;0.28;;
50517;SDS011;37075;44.084;2.962;2023-12-07T16:24:31;1.07;;;0.60;;
50517;SDS011;37075;44.084;2.962;2023-12-07T16:27:17;1.50;;;1.02;;
50517;SDS011;37075;44.084;2.962;2023-12-07T16:30:03;0.98;;;0.52;;
50517;SDS011;37075;44.084;2.962;2023-12-07T16:32:51;1.52;;;0.60;;
50517;SDS011;37075;44.084;2.962;2023-12-07T16:35:38;1.52;;;0.45;;
50517;SDS011;37075;44.084;2.962;2023-12-07T16:38:25;0.98;;;0.50;;
50517;SDS011;37075;44.084;2.962;2023-12-07T16:41:11;0.55;;;0.40;;
50517;SDS011;37075;44.084;2.962;2023-12-07T16:43:57;2.85;;;0.70;;
50517;SDS011;37075;44.084;2.962;2023-12-07T16:46:43;4.43;;;0.70;;
50517;SDS011;37075;44.084;2.962;2023-12-07T16:49:30;4.80;;;0.73;;
50517;SDS011;37075;44.084;2.962;2023-12-07T16:52:16;0.75;;;0.38;;